createdAt,value
2022-08-26T00:16:56.153Z,24.75
2022-08-26T00:37:01.009Z,24.57
2022-08-26T00:57:16.239Z,24.39
2022-08-26T01:17:20.062Z,24.20
2022-08-26T01:37:27.015Z,24.02
2022-08-26T01:57:31.979Z,23.86
2022-08-26T02:17:41.620Z,23.64
2022-08-26T02:37:45.517Z,23.58
2022-08-26T02:57:49.709Z,23.34
2022-08-26T03:17:55.421Z,22.95
2022-08-26T03:38:01.911Z,22.82
2022-08-26T03:58:05.344Z,22.83
2022-08-26T04:18:08.578Z,22.83
2022-08-26T04:38:12.237Z,22.53
2022-08-26T04:58:17.334Z,22.59
2022-08-26T05:18:22.910Z,23.06
2022-08-26T05:38:30.217Z,23.11
2022-08-26T05:58:35.628Z,23.77
2022-08-26T06:18:42.588Z,23.91
2022-08-26T06:38:48.991Z,24.35
2022-08-26T06:58:53.348Z,24.79
2022-08-26T07:18:59.780Z,25.33
2022-08-26T07:39:07.202Z,25.84
2022-08-26T07:59:13.719Z,26.48
2022-08-26T08:19:18.838Z,27.17
2022-08-26T08:39:22.480Z,27.76
2022-08-26T08:59:28.380Z,28.86
2022-08-26T09:19:50.292Z,34.75
2022-08-26T09:39:53.721Z,41.52
2022-08-26T09:59:57.375Z,41.36
2022-08-26T10:20:23.449Z,40.27
2022-08-26T10:40:31.262Z,38.78
2022-08-26T11:00:59.946Z,37.79
2022-08-26T11:21:03.738Z,33.66
2022-08-26T11:41:18.692Z,33.49
2022-08-26T12:01:27.906Z,33.65
2022-08-26T12:21:35.102Z,34.23
2022-08-26T12:41:50.933Z,34.77
2022-08-26T13:01:54.637Z,34.89
2022-08-26T13:22:02.301Z,35.34
2022-08-26T13:42:13.910Z,35.14
2022-08-26T14:02:20.197Z,35.59
2022-08-26T14:22:25.369Z,35.15
2022-08-26T14:42:31.435Z,35.70
2022-08-26T15:02:35.274Z,34.13
2022-08-26T15:22:39.584Z,33.79
2022-08-26T15:42:44.621Z,33.71
2022-08-26T16:02:55.454Z,33.01
2022-08-26T16:22:59.824Z,32.65
2022-08-26T16:43:05.364Z,32.16
2022-08-26T17:03:09.128Z,31.30
2022-08-26T17:23:14.614Z,30.99
2022-08-26T17:43:19.233Z,30.50
2022-08-26T18:03:23.684Z,30.14
2022-08-26T18:23:27.724Z,29.58
2022-08-26T18:43:34.605Z,29.19
2022-08-26T19:03:37.904Z,28.95
2022-08-26T19:23:41.685Z,28.62
2022-08-26T19:43:46.166Z,28.15
2022-08-26T20:03:50.115Z,27.93
2022-08-26T20:23:55.142Z,27.97
2022-08-26T20:43:58.968Z,27.86
2022-08-26T21:04:05.317Z,27.66
2022-08-26T21:24:09.092Z,27.37
2022-08-26T21:44:14.974Z,27.15
2022-08-26T22:04:20.143Z,27.06
2022-08-26T22:24:25.622Z,26.81
2022-08-26T22:44:30.743Z,26.48
2022-08-26T23:04:35.312Z,26.26
2022-08-26T23:24:39.050Z,25.87
2022-08-26T23:44:42.328Z,25.72
